Hovedside
METAR-TAF:

METAR-TAF

Lufthavner :

Pemba, Mosambik

breddegrad: 12-59S, lengdegrad: 040-32E, høyde over havet: 101 m

Gjeldene værobservasjon

Denne rapporten ble laget for 1 time og 10 minutter siden, klokken 09:00 UTC
Vind 9 kt fra Sørøst
Temperatur 29°C
Luftfuktighet 43%
Trykk 1018 hPa
Sikt 10 km eller mer
Få skyer i en høyde av 2000 ft
Spredte skyer i en høyde av 10000 ft

METAR: FQPB 090900Z 13009KT 9999 FEW020 SCT100 29/15 Q1018

Tid: 12:10 (10:10 UTC)

Varsel

Denne rapporten ble laget for 6 timer og 10 minutter siden, klokken 04:00 UTC
Varsel gyldig fra 09. klokken 06 UTC til 10. klokken 06 UTC
Vind 6 kt fra Vest-sørvest
Sikt 10 km eller mer
Få skyer i en høyde av 2000 ft
Blir
fra 09. klokken 12 UTC til 09. klokken 14 UTC
Vind 14 kt fra Sør-sørøst
Blir
fra 09. klokken 18 UTC til 09. klokken 20 UTC
Vind 9 kt fra Øst

TAF: FQPB 090400Z 0906/1006 25006KT 9999 FEW020 TX27/0913Z TN19/1003Z BECMG 0912/0914 16014KT BECMG 0918/0920 09009KT

Værobservasjoner og værvarsel for over 4000 flyplasser (METAR- og TAF-rapporter).

Tilgjengelige stasjoner er representert av de røde og gule prikkene på kartet.

Hold musepekeren over prikken for å se navnet på stasjonen.

Klikk så for å se værobservasjoner og -varsler.

For å forandre kartet kan du klikke på den grønne knappen med svart kryss for å zoome inn, på den grønne knappen med strek for å zoome ut, eller på de grønne pilene for å se tilstøtende kart.


METAR-TAF: